createdAt,value
2018-07-22T00:02:36.501Z,2.7
2018-07-22T00:05:36.487Z,2.5
2018-07-22T00:08:36.356Z,2.9
2018-07-22T00:11:36.438Z,2.7
2018-07-22T00:14:36.410Z,2.6
2018-07-22T00:17:36.293Z,2.6
2018-07-22T00:20:36.439Z,2.7
2018-07-22T00:23:36.547Z,2.6
2018-07-22T00:26:36.256Z,2.6
2018-07-22T00:29:36.380Z,2.6
2018-07-22T00:32:36.599Z,2.6
2018-07-22T00:35:36.241Z,2.7
2018-07-22T00:38:36.309Z,2.6
2018-07-22T00:41:36.334Z,2.6
2018-07-22T00:44:36.330Z,2.6
2018-07-22T00:47:36.400Z,2.6
2018-07-22T00:50:36.321Z,2.5
2018-07-22T00:53:36.197Z,2.5
2018-07-22T00:56:36.309Z,2.6
2018-07-22T00:59:36.465Z,2.6
2018-07-22T01:02:36.429Z,3.6
2018-07-22T01:05:36.412Z,2.6
2018-07-22T01:08:36.295Z,2.5
2018-07-22T01:11:36.598Z,2.5
2018-07-22T01:14:36.594Z,2.5
2018-07-22T01:17:36.236Z,2.8
2018-07-22T01:20:36.434Z,2.5
2018-07-22T01:23:36.511Z,2.8
2018-07-22T01:26:36.419Z,2.5
2018-07-22T01:29:36.535Z,3.7
2018-07-22T01:32:36.408Z,2.5
2018-07-22T01:35:36.341Z,2.6
2018-07-22T01:38:36.533Z,2.7
2018-07-22T01:41:36.427Z,2.7
2018-07-22T01:44:36.423Z,2.6
2018-07-22T01:47:36.209Z,2.6
2018-07-22T01:50:36.361Z,2.5
2018-07-22T01:53:36.369Z,2.6
2018-07-22T01:56:36.250Z,2.5
2018-07-22T01:59:36.313Z,2.7
2018-07-22T02:02:36.263Z,2.4
2018-07-22T02:05:36.262Z,2.5
2018-07-22T02:08:36.242Z,2.5
2018-07-22T02:11:36.272Z,2.5
2018-07-22T02:14:36.263Z,2.6
2018-07-22T02:17:36.345Z,2.6
2018-07-22T02:20:36.361Z,2.6
2018-07-22T02:23:36.190Z,2.5
2018-07-22T02:26:36.446Z,2.7
2018-07-22T02:29:36.308Z,2.9
2018-07-22T02:32:36.378Z,2.5
2018-07-22T02:35:36.289Z,2.6
2018-07-22T02:38:36.318Z,2.6
2018-07-22T02:41:36.539Z,2.9
2018-07-22T02:44:36.426Z,2.5
2018-07-22T02:47:36.635Z,2.9
2018-07-22T02:50:36.306Z,2.6
2018-07-22T02:53:36.360Z,2.5
2018-07-22T02:56:36.327Z,2.6
2018-07-22T02:59:36.462Z,2.5
2018-07-22T03:02:36.318Z,2.5
2018-07-22T03:05:36.593Z,2.6
2018-07-22T03:08:36.383Z,2.6
2018-07-22T03:11:36.489Z,2.4
2018-07-22T03:14:36.492Z,2.5
2018-07-22T03:17:36.212Z,2.5
2018-07-22T03:20:36.032Z,2.8
2018-07-22T03:23:36.454Z,2.6
2018-07-22T03:26:36.150Z,2.5
2018-07-22T03:29:36.340Z,2.3
2018-07-22T03:32:36.438Z,2.6
2018-07-22T03:35:36.184Z,2.6
2018-07-22T03:38:36.354Z,2.6
2018-07-22T03:41:36.583Z,2.5
2018-07-22T03:44:36.326Z,2.6
2018-07-22T03:47:36.489Z,2.5
2018-07-22T03:50:36.371Z,2.5
2018-07-22T03:53:46.121Z,2.4
2018-07-22T03:56:36.454Z,2.6
2018-07-22T03:59:36.295Z,2.5
2018-07-22T04:02:36.387Z,2.6
2018-07-22T04:05:36.290Z,2.6
2018-07-22T04:08:36.184Z,2.3
2018-07-22T04:11:36.290Z,2.5
2018-07-22T04:14:36.396Z,2.5
2018-07-22T04:17:36.389Z,2.6
2018-07-22T04:20:36.393Z,2.6
2018-07-22T04:23:36.245Z,2.4
2018-07-22T04:26:36.435Z,2.4
2018-07-22T04:29:36.503Z,2.4
2018-07-22T04:32:36.369Z,2.5
2018-07-22T04:35:36.300Z,2.5
2018-07-22T04:38:36.210Z,2.4
2018-07-22T04:41:36.416Z,2.5
2018-07-22T04:44:36.335Z,2.5
2018-07-22T04:47:36.304Z,2.6
2018-07-22T04:50:36.298Z,2.5
2018-07-22T04:53:37.575Z,2.5
2018-07-22T04:56:36.280Z,2.4
2018-07-22T04:59:36.965Z,2.5
2018-07-22T05:02:36.440Z,2.3
2018-07-22T05:05:36.184Z,2.5
2018-07-22T05:08:36.246Z,2.5
2018-07-22T05:11:36.687Z,2.6
2018-07-22T05:14:36.367Z,2.5
2018-07-22T05:17:36.591Z,2.6
2018-07-22T05:20:36.209Z,2.4
2018-07-22T05:23:36.450Z,2.4
2018-07-22T05:26:36.275Z,2.4
2018-07-22T05:29:36.321Z,2.3
2018-07-22T05:32:36.428Z,2.5
2018-07-22T05:35:36.436Z,2.4
2018-07-22T05:38:36.819Z,2.6
2018-07-22T05:41:36.190Z,2.5
2018-07-22T05:44:36.270Z,2.5
2018-07-22T05:47:36.153Z,2.2
2018-07-22T05:50:36.392Z,2.4
2018-07-22T05:53:36.385Z,2.5
2018-07-22T05:56:36.684Z,2.4
2018-07-22T05:59:36.191Z,2.4
2018-07-22T06:02:36.500Z,2.3
2018-07-22T06:05:36.320Z,3.1
2018-07-22T06:08:36.209Z,2.4
2018-07-22T06:11:36.180Z,2.3
2018-07-22T06:14:36.645Z,2.6
2018-07-22T06:17:36.304Z,2.3
2018-07-22T06:20:36.340Z,2.6
2018-07-22T06:23:36.681Z,2.5
2018-07-22T06:26:36.461Z,2.3
2018-07-22T06:29:36.187Z,2.5
2018-07-22T06:32:36.275Z,2.3
2018-07-22T06:35:36.499Z,2.1
2018-07-22T06:38:36.288Z,2.5
2018-07-22T06:41:36.303Z,3
2018-07-22T06:44:36.250Z,5.1
2018-07-22T06:47:36.218Z,4.4
2018-07-22T06:50:36.289Z,3.9
2018-07-22T06:53:37.277Z,3.6
2018-07-22T06:56:36.173Z,3.3
2018-07-22T06:59:36.383Z,2.4
2018-07-22T07:02:36.227Z,2.6
2018-07-22T07:05:36.616Z,2.7
2018-07-22T07:08:37.255Z,2.5
2018-07-22T07:11:36.142Z,2.6
2018-07-22T07:14:36.407Z,2.7
2018-07-22T07:17:36.332Z,2.5
2018-07-22T07:20:36.336Z,2.4
2018-07-22T07:23:36.140Z,2.5
2018-07-22T07:26:36.936Z,3.6
2018-07-22T07:29:36.315Z,2.5
2018-07-22T07:32:36.227Z,2.5
2018-07-22T07:35:36.508Z,2.5
2018-07-22T07:38:36.256Z,2.5
2018-07-22T07:41:36.256Z,2.5
2018-07-22T07:44:36.661Z,2.6
2018-07-22T07:47:36.255Z,2.4
2018-07-22T07:50:36.159Z,2.9
2018-07-22T07:53:36.368Z,2.6
2018-07-22T07:56:36.218Z,2.7
2018-07-22T07:59:36.442Z,2.6
2018-07-22T08:02:36.197Z,2.9
2018-07-22T08:05:38.271Z,2.5
2018-07-22T08:08:36.350Z,2.6
2018-07-22T08:11:37.457Z,8.1
2018-07-22T08:14:36.262Z,2.7
2018-07-22T08:17:36.143Z,3.4
2018-07-22T08:20:36.238Z,5
2018-07-22T08:23:36.122Z,3.4
2018-07-22T08:26:36.546Z,4.6
2018-07-22T08:29:36.203Z,3.3
2018-07-22T08:32:36.424Z,6.6
2018-07-22T08:35:36.185Z,6
2018-07-22T08:38:36.352Z,4.5
2018-07-22T08:41:37.714Z,4.2
2018-07-22T08:44:36.266Z,6.1
2018-07-22T08:47:36.546Z,6.6
2018-07-22T08:50:36.326Z,5.8
2018-07-22T08:53:36.232Z,3.9
2018-07-22T08:56:36.183Z,4.1
2018-07-22T08:59:36.011Z,4.9
2018-07-22T09:02:36.300Z,9.7
2018-07-22T09:05:36.862Z,6
2018-07-22T09:08:36.303Z,6
2018-07-22T09:11:36.785Z,5.1
2018-07-22T09:14:36.259Z,4.5
2018-07-22T09:17:36.514Z,8
2018-07-22T09:20:36.202Z,5.8
2018-07-22T09:23:36.221Z,5.3
2018-07-22T09:26:36.103Z,3.9
2018-07-22T09:29:36.247Z,4.1
2018-07-22T09:32:36.170Z,5.7
2018-07-22T09:35:36.127Z,4.2
2018-07-22T09:38:36.336Z,5
2018-07-22T09:41:36.258Z,7.2
2018-07-22T09:44:36.278Z,3.6
2018-07-22T09:47:36.299Z,3.9
2018-07-22T09:50:36.250Z,5.3
2018-07-22T09:53:36.972Z,4.9
2018-07-22T09:56:36.401Z,4.1
2018-07-22T09:59:36.137Z,4.4
2018-07-22T10:02:36.393Z,5.3
2018-07-22T10:05:36.191Z,5.2
2018-07-22T10:08:36.124Z,4.7
2018-07-22T10:11:36.547Z,6.1
2018-07-22T10:14:38.289Z,6.5
2018-07-22T10:17:37.159Z,12.6
2018-07-22T10:20:36.148Z,5.2
2018-07-22T10:23:36.223Z,6.6
2018-07-22T10:26:36.228Z,9.6
2018-07-22T10:29:36.117Z,10.2
2018-07-22T10:32:36.365Z,9.2
2018-07-22T10:35:36.120Z,16
2018-07-22T10:38:36.374Z,35.9
2018-07-22T10:41:36.564Z,15.2
2018-07-22T10:44:36.046Z,13.2
2018-07-22T10:47:36.195Z,15.5
2018-07-22T10:50:36.363Z,15.9
2018-07-22T10:53:36.181Z,16.5
2018-07-22T10:56:36.190Z,15.6
2018-07-22T10:59:36.179Z,11.9
2018-07-22T11:02:36.356Z,11
2018-07-22T11:05:36.239Z,10.2
2018-07-22T11:08:36.237Z,11
2018-07-22T11:11:36.222Z,9.9
2018-07-22T11:14:37.807Z,9
2018-07-22T11:17:36.132Z,10.9
2018-07-22T11:20:36.256Z,13.5
2018-07-22T11:23:36.297Z,12.4
2018-07-22T11:26:36.462Z,10.8
2018-07-22T11:29:36.234Z,9.1
2018-07-22T11:32:36.275Z,9.6
2018-07-22T11:35:36.041Z,11
2018-07-22T11:38:36.153Z,9.6
2018-07-22T11:41:36.225Z,9.1
2018-07-22T11:44:36.140Z,10.8
2018-07-22T11:47:36.051Z,7.9
2018-07-22T11:50:36.886Z,7.4
2018-07-22T11:53:36.225Z,7.5
2018-07-22T11:56:36.229Z,7.9
2018-07-22T11:59:36.660Z,9.6
2018-07-22T12:02:36.320Z,9.1
2018-07-22T12:05:36.258Z,5.9
2018-07-22T12:08:36.165Z,8
2018-07-22T12:11:36.379Z,6.1
2018-07-22T12:14:36.254Z,5.3
2018-07-22T12:17:36.233Z,6.5
2018-07-22T12:20:36.149Z,6.2
2018-07-22T12:23:36.157Z,8.1
2018-07-22T12:26:36.169Z,5.4
2018-07-22T12:29:36.131Z,5.1
2018-07-22T12:32:35.999Z,4.8
2018-07-22T12:35:36.572Z,4.9
2018-07-22T12:38:36.270Z,5.6
2018-07-22T12:41:36.157Z,6.5
2018-07-22T12:44:36.223Z,4.8
2018-07-22T12:47:36.231Z,6.4
2018-07-22T12:50:36.054Z,5
2018-07-22T12:53:36.419Z,6.2
2018-07-22T12:56:36.229Z,5.4
2018-07-22T12:59:36.084Z,11.5
2018-07-22T13:02:36.383Z,11.5
2018-07-22T13:05:36.237Z,15.3
2018-07-22T13:08:36.278Z,10.6
2018-07-22T13:11:36.058Z,8.9
2018-07-22T13:14:36.244Z,9.3
2018-07-22T13:17:36.261Z,6.8
2018-07-22T13:20:36.004Z,11.6
2018-07-22T13:23:36.207Z,9.5
2018-07-22T13:26:36.221Z,8.5
2018-07-22T13:29:36.206Z,9.9
2018-07-22T13:32:36.063Z,9.1
2018-07-22T13:35:36.381Z,7.7
2018-07-22T13:38:36.275Z,8.3
2018-07-22T13:41:35.959Z,7.6
2018-07-22T13:44:36.416Z,9.7
2018-07-22T13:47:36.381Z,7.5
2018-07-22T13:50:36.397Z,5.6
2018-07-22T13:53:36.364Z,7.9
2018-07-22T13:56:36.186Z,7.9
2018-07-22T13:59:36.029Z,6.7
2018-07-22T14:02:36.211Z,6
2018-07-22T14:05:36.345Z,7.7
2018-07-22T14:08:36.325Z,5.5
2018-07-22T14:11:35.999Z,5.6
2018-07-22T14:14:36.197Z,5.5
2018-07-22T14:17:36.228Z,6.9
2018-07-22T14:20:36.090Z,7.2
2018-07-22T14:23:36.228Z,6
2018-07-22T14:26:36.240Z,7.5
2018-07-22T14:29:36.378Z,5
2018-07-22T14:32:36.227Z,19.9
2018-07-22T14:35:36.213Z,9.1
2018-07-22T14:38:36.281Z,8.8
2018-07-22T14:41:36.242Z,7.6
2018-07-22T14:44:37.314Z,9.2
2018-07-22T14:47:36.130Z,6.5
2018-07-22T14:50:36.020Z,9.2
2018-07-22T14:53:37.578Z,10.8
2018-07-22T14:56:36.011Z,8.9
2018-07-22T14:59:36.132Z,14.3
2018-07-22T15:02:36.132Z,14.6
2018-07-22T15:05:35.982Z,15.6
2018-07-22T15:08:36.108Z,14.4
2018-07-22T15:11:36.075Z,11.1
2018-07-22T15:14:36.170Z,14.1
2018-07-22T15:17:36.160Z,13.6
2018-07-22T15:20:36.197Z,14.7
2018-07-22T15:23:36.037Z,9.5
2018-07-22T15:26:36.094Z,12.4
2018-07-22T15:29:37.187Z,10.1
2018-07-22T15:32:36.189Z,7.8
2018-07-22T15:35:35.877Z,11.9
2018-07-22T15:38:36.173Z,9.2
2018-07-22T15:41:36.024Z,9
2018-07-22T15:44:36.001Z,9.9
2018-07-22T15:47:36.290Z,10.4
2018-07-22T15:50:36.335Z,9.8
2018-07-22T15:53:36.230Z,11.3
2018-07-22T15:56:36.156Z,10.2
2018-07-22T15:59:36.141Z,12.1
2018-07-22T16:02:36.154Z,12.4
2018-07-22T16:05:36.165Z,8.3
2018-07-22T16:08:36.066Z,8.8
2018-07-22T16:11:36.455Z,9.9
2018-07-22T16:14:36.253Z,8.7
2018-07-22T16:17:35.946Z,7.9
2018-07-22T16:20:36.011Z,9.3
2018-07-22T16:23:36.075Z,7.2
2018-07-22T16:26:35.943Z,8
2018-07-22T16:29:36.205Z,7.7
2018-07-22T16:32:36.148Z,7.8
2018-07-22T16:35:35.949Z,8.1
2018-07-22T16:38:36.039Z,7.9
2018-07-22T16:41:36.082Z,6
2018-07-22T16:44:35.962Z,7.1
2018-07-22T16:47:36.125Z,6
2018-07-22T16:50:35.963Z,8
2018-07-22T16:53:37.269Z,7.9
2018-07-22T16:56:36.110Z,6.1
2018-07-22T16:59:36.086Z,7
2018-07-22T17:02:36.199Z,7.6
2018-07-22T17:05:35.972Z,6.3
2018-07-22T17:08:35.911Z,5.3
2018-07-22T17:11:35.906Z,5.5
2018-07-22T17:14:36.178Z,7.3
2018-07-22T17:17:36.038Z,5.4
2018-07-22T17:20:36.193Z,5.8
2018-07-22T17:23:36.080Z,5.6
2018-07-22T17:26:36.083Z,6.8
2018-07-22T17:29:35.951Z,5.9
2018-07-22T17:32:36.065Z,7.6
2018-07-22T17:35:36.138Z,6.4
2018-07-22T17:38:36.193Z,6.8
2018-07-22T17:41:36.133Z,7.6
2018-07-22T17:44:37.103Z,6.3
2018-07-22T17:47:46.044Z,5.3
2018-07-22T17:50:36.162Z,6.7
2018-07-22T17:53:36.126Z,6.3
2018-07-22T17:56:35.914Z,6.4
2018-07-22T17:59:37.282Z,5.6
2018-07-22T18:02:35.997Z,6.9
2018-07-22T18:05:37.569Z,5.3
2018-07-22T18:08:36.053Z,5.4
2018-07-22T18:11:36.160Z,7.7
2018-07-22T18:14:35.977Z,5.2
2018-07-22T18:17:36.401Z,5.2
2018-07-22T18:20:37.398Z,4.7
2018-07-22T18:23:36.106Z,5.5
2018-07-22T18:26:37.178Z,5.5
2018-07-22T18:29:36.002Z,4.9
2018-07-22T18:32:35.812Z,4.2
2018-07-22T18:35:35.987Z,4.9
2018-07-22T18:38:35.996Z,4.3
2018-07-22T18:41:36.221Z,5.5
2018-07-22T18:44:35.980Z,7.7
2018-07-22T18:47:35.993Z,10.1
2018-07-22T18:50:36.157Z,5.6
2018-07-22T18:53:36.040Z,6.1
2018-07-22T18:56:35.981Z,6
2018-07-22T18:59:36.212Z,5.6
2018-07-22T19:02:36.328Z,7
2018-07-22T19:05:37.156Z,5.2
2018-07-22T19:08:35.988Z,6.3
2018-07-22T19:11:36.095Z,5.5
2018-07-22T19:14:35.903Z,5.6
2018-07-22T19:17:36.153Z,7.4
2018-07-22T19:20:35.945Z,7.6
2018-07-22T19:23:35.908Z,8.7
2018-07-22T19:26:36.031Z,5.2
2018-07-22T19:29:36.272Z,5.3
2018-07-22T19:32:35.946Z,5.3
2018-07-22T19:35:35.929Z,5.4
2018-07-22T19:38:36.012Z,7
2018-07-22T19:41:36.036Z,5.1
2018-07-22T19:44:36.026Z,4.9
2018-07-22T19:47:35.971Z,5.2
2018-07-22T19:50:36.108Z,4.9
2018-07-22T19:53:36.657Z,4.7
2018-07-22T19:56:36.739Z,4.8
2018-07-22T19:59:35.989Z,6.9
2018-07-22T20:02:36.450Z,5.5
2018-07-22T20:05:36.189Z,6.1
2018-07-22T20:08:36.244Z,6.2
2018-07-22T20:11:35.960Z,5.9
2018-07-22T20:14:36.042Z,4.9
2018-07-22T20:17:35.917Z,5.4
2018-07-22T20:20:36.263Z,5
2018-07-22T20:23:36.038Z,5.2
2018-07-22T20:26:35.919Z,5.4
2018-07-22T20:29:36.077Z,5.5
2018-07-22T20:32:36.020Z,4.8
2018-07-22T20:35:36.085Z,5
2018-07-22T20:38:36.237Z,5
2018-07-22T20:41:35.917Z,5.2
2018-07-22T20:44:36.115Z,4.8
2018-07-22T20:47:35.806Z,4.7
2018-07-22T20:50:36.074Z,5.2
2018-07-22T20:53:36.105Z,5.2
2018-07-22T20:56:36.103Z,5.4
2018-07-22T20:59:35.893Z,4.8
2018-07-22T21:02:35.800Z,4.7
2018-07-22T21:05:36.020Z,4.6
2018-07-22T21:08:35.894Z,5.2
2018-07-22T21:11:35.918Z,4.8
2018-07-22T21:14:36.062Z,4.9
2018-07-22T21:17:36.719Z,4.7
2018-07-22T21:20:35.943Z,4.5
2018-07-22T21:23:36.041Z,4.4
2018-07-22T21:26:36.350Z,4.7
2018-07-22T21:29:35.916Z,5.3
2018-07-22T21:32:36.375Z,4.5
2018-07-22T21:35:35.963Z,4.6
2018-07-22T21:38:36.347Z,4.4
2018-07-22T21:41:36.033Z,4.8
2018-07-22T21:44:36.032Z,4.6
2018-07-22T21:47:36.028Z,4.6
2018-07-22T21:50:35.899Z,4.9
2018-07-22T21:53:36.007Z,4.7
2018-07-22T21:56:36.033Z,4.5
2018-07-22T21:59:35.966Z,4.4
2018-07-22T22:02:35.936Z,4.6
2018-07-22T22:05:35.950Z,4.5
2018-07-22T22:08:36.009Z,4.6
2018-07-22T22:11:35.784Z,4.6
2018-07-22T22:14:36.037Z,4.3
2018-07-22T22:17:35.995Z,4.7
2018-07-22T22:20:35.759Z,4.6
2018-07-22T22:23:36.040Z,4.5
2018-07-22T22:26:35.913Z,4.6
2018-07-22T22:29:35.898Z,4.4
2018-07-22T22:32:37.001Z,4.5
2018-07-22T22:35:35.982Z,4.4
2018-07-22T22:38:38.394Z,4.5
2018-07-22T22:41:36.394Z,4.5
2018-07-22T22:44:36.245Z,4.8
2018-07-22T22:47:35.937Z,4.5
2018-07-22T22:50:35.900Z,4.2
2018-07-22T22:53:35.887Z,4.4
2018-07-22T22:56:35.863Z,4.1
2018-07-22T22:59:35.930Z,4.4
2018-07-22T23:02:35.912Z,3.9
2018-07-22T23:05:36.060Z,4.4
2018-07-22T23:08:35.998Z,4.3
2018-07-22T23:11:35.917Z,4.2
2018-07-22T23:14:35.948Z,4.4
2018-07-22T23:17:35.858Z,4.3
2018-07-22T23:20:35.980Z,4.2
2018-07-22T23:23:35.779Z,4.3
2018-07-22T23:26:35.817Z,4.3
2018-07-22T23:29:36.035Z,4.2
2018-07-22T23:32:35.919Z,4.2
2018-07-22T23:35:36.199Z,4.1
2018-07-22T23:38:35.808Z,4.4
2018-07-22T23:41:35.752Z,4.4
2018-07-22T23:44:36.009Z,3.9
2018-07-22T23:47:35.807Z,3.9
2018-07-22T23:50:35.843Z,4
2018-07-22T23:53:36.042Z,4.1
2018-07-22T23:56:35.921Z,4.3
2018-07-22T23:59:36.124Z,4.2
